createdAt,value
2023-02-02T00:00:04.907Z,0.00
2023-02-02T00:01:04.993Z,0.00
2023-02-02T00:02:05.071Z,0.00
2023-02-02T00:03:05.205Z,0.00
2023-02-02T00:04:05.287Z,0.00
2023-02-02T00:05:05.300Z,0.00
2023-02-02T00:06:05.370Z,0.00
2023-02-02T00:07:05.462Z,0.00
2023-02-02T00:08:05.526Z,0.00
2023-02-02T00:09:05.619Z,0.00
2023-02-02T00:10:05.710Z,0.00
2023-02-02T00:11:05.792Z,0.00
2023-02-02T00:12:05.871Z,0.00
2023-02-02T00:13:05.945Z,0.00
2023-02-02T00:14:06.027Z,0.00
2023-02-02T00:15:06.072Z,0.00
2023-02-02T00:16:06.200Z,0.00
2023-02-02T00:17:06.242Z,0.00
2023-02-02T00:18:06.316Z,0.00
2023-02-02T00:19:06.411Z,0.00
2023-02-02T00:20:06.497Z,0.00
2023-02-02T00:21:06.581Z,0.00
2023-02-02T00:22:06.654Z,0.00
2023-02-02T00:23:06.736Z,0.00
2023-02-02T00:24:06.849Z,0.00
2023-02-02T00:25:06.905Z,0.00
2023-02-02T00:26:06.973Z,0.00
2023-02-02T00:27:07.049Z,0.00
2023-02-02T00:28:07.151Z,0.00
2023-02-02T00:29:07.249Z,0.00
2023-02-02T00:30:07.347Z,0.00
2023-02-02T00:31:07.455Z,0.00
2023-02-02T00:32:07.457Z,0.00
2023-02-02T00:33:07.535Z,0.00
2023-02-02T00:34:07.637Z,0.00
2023-02-02T00:35:07.677Z,0.00
2023-02-02T00:36:07.761Z,0.00
2023-02-02T00:37:07.829Z,0.00
2023-02-02T00:38:07.896Z,0.00
2023-02-02T00:39:07.991Z,0.00
2023-02-02T00:40:08.075Z,0.00
2023-02-02T00:41:08.158Z,0.00
2023-02-02T00:42:08.228Z,0.00
2023-02-02T00:43:08.310Z,0.00
2023-02-02T00:44:08.415Z,0.00
2023-02-02T00:45:08.455Z,0.00
2023-02-02T00:46:08.538Z,0.00
2023-02-02T00:47:08.626Z,0.00
2023-02-02T00:48:08.697Z,0.00
2023-02-02T00:49:08.799Z,0.00
2023-02-02T00:50:08.866Z,0.00
2023-02-02T00:51:08.945Z,0.00
2023-02-02T00:52:09.067Z,0.00
2023-02-02T00:53:09.124Z,0.00
2023-02-02T00:54:09.231Z,0.00
2023-02-02T00:55:09.278Z,0.00
2023-02-02T00:56:09.381Z,0.00
2023-02-02T00:57:09.427Z,0.00
2023-02-02T00:58:09.503Z,0.00
2023-02-02T00:59:09.617Z,0.00
2023-02-02T01:00:09.671Z,0.00
2023-02-02T01:01:09.792Z,0.00
2023-02-02T01:02:09.860Z,0.00
2023-02-02T01:03:09.930Z,0.00
2023-02-02T01:04:10.049Z,0.00
2023-02-02T01:05:10.080Z,0.00
2023-02-02T01:06:10.167Z,0.00
2023-02-02T01:07:10.235Z,0.00
2023-02-02T01:08:10.307Z,0.00
2023-02-02T01:09:10.404Z,0.00
2023-02-02T01:10:10.491Z,0.00
2023-02-02T01:11:10.577Z,0.00
2023-02-02T01:12:10.649Z,0.00
2023-02-02T01:13:10.725Z,0.00
2023-02-02T01:14:10.815Z,0.00
2023-02-02T01:15:10.867Z,0.00
2023-02-02T01:16:11.008Z,0.00
2023-02-02T01:17:11.019Z,0.00
2023-02-02T01:18:11.095Z,0.00
2023-02-02T01:19:11.191Z,0.00
2023-02-02T01:20:11.293Z,0.00
2023-02-02T01:21:11.359Z,0.00
2023-02-02T01:22:11.452Z,0.00
2023-02-02T01:23:11.531Z,0.00
2023-02-02T01:24:11.636Z,0.00
2023-02-02T01:25:11.710Z,0.00
2023-02-02T01:26:11.795Z,0.00
2023-02-02T01:27:11.880Z,0.00
2023-02-02T01:28:11.965Z,0.00
2023-02-02T01:29:12.077Z,0.00
2023-02-02T01:30:12.125Z,0.00
2023-02-02T01:31:12.231Z,0.00
2023-02-02T01:32:12.271Z,0.00
2023-02-02T01:33:12.331Z,0.00
2023-02-02T01:34:12.428Z,0.00
2023-02-02T01:35:12.495Z,0.00
2023-02-02T01:36:12.567Z,0.00
2023-02-02T01:37:12.638Z,0.00
2023-02-02T01:38:12.727Z,0.00
2023-02-02T01:39:12.823Z,0.00
2023-02-02T01:40:12.863Z,0.00
2023-02-02T01:41:12.954Z,0.00
2023-02-02T01:42:13.037Z,0.00
2023-02-02T01:43:13.108Z,0.00
2023-02-02T01:44:13.189Z,0.00
2023-02-02T01:45:13.263Z,0.00
2023-02-02T01:46:13.368Z,0.00
2023-02-02T01:47:13.440Z,0.00
2023-02-02T01:48:13.523Z,0.00
2023-02-02T01:49:13.627Z,0.00
2023-02-02T01:50:13.672Z,0.00
2023-02-02T01:51:13.742Z,0.00
2023-02-02T01:52:13.829Z,0.00
2023-02-02T01:53:13.906Z,0.00
2023-02-02T01:54:13.998Z,0.00
2023-02-02T01:55:14.070Z,0.00
2023-02-02T01:56:14.151Z,0.00
2023-02-02T01:57:14.240Z,0.00
2023-02-02T01:58:14.319Z,0.00
2023-02-02T01:59:14.407Z,0.00
2023-02-02T02:00:14.470Z,0.00
2023-02-02T02:01:14.612Z,0.00
2023-02-02T02:02:14.662Z,0.00
2023-02-02T02:03:14.725Z,0.00
2023-02-02T02:04:14.818Z,0.00
2023-02-02T02:05:14.900Z,0.00
2023-02-02T02:06:15.025Z,0.00
2023-02-02T02:07:15.057Z,0.00
2023-02-02T02:08:15.129Z,0.00
2023-02-02T02:09:15.211Z,0.00
2023-02-02T02:10:15.251Z,0.00
2023-02-02T02:11:15.327Z,0.00
2023-02-02T02:12:15.422Z,0.00
2023-02-02T02:13:15.492Z,0.00
2023-02-02T02:14:15.590Z,0.00
2023-02-02T02:15:15.667Z,0.00
2023-02-02T02:16:15.761Z,0.00
2023-02-02T02:17:15.849Z,0.00
2023-02-02T02:18:15.884Z,0.00
2023-02-02T02:19:15.965Z,0.00
2023-02-02T02:20:16.028Z,0.00
2023-02-02T02:21:16.093Z,0.00
2023-02-02T02:22:16.163Z,0.00
2023-02-02T02:23:16.247Z,0.00
2023-02-02T02:24:16.331Z,0.00
2023-02-02T02:25:16.377Z,0.00
2023-02-02T02:26:16.493Z,0.00
2023-02-02T02:27:16.567Z,0.00
2023-02-02T02:28:16.640Z,0.00
2023-02-02T02:29:16.725Z,0.00
2023-02-02T02:30:16.803Z,0.00
2023-02-02T02:31:16.957Z,0.00
2023-02-02T02:32:16.964Z,0.00
2023-02-02T02:33:17.055Z,0.00
2023-02-02T02:34:17.164Z,0.00
2023-02-02T02:35:17.212Z,0.00
2023-02-02T02:36:17.295Z,0.00
2023-02-02T02:37:17.372Z,0.00
2023-02-02T02:38:17.451Z,0.00
2023-02-02T02:39:17.526Z,0.00
2023-02-02T02:40:17.611Z,0.00
2023-02-02T02:41:17.685Z,0.00
2023-02-02T02:42:17.765Z,0.00
2023-02-02T02:43:17.842Z,0.00
2023-02-02T02:44:17.929Z,0.00
2023-02-02T02:45:17.967Z,0.00
2023-02-02T02:46:18.105Z,0.00
2023-02-02T02:47:18.166Z,0.00
2023-02-02T02:48:18.237Z,0.00
2023-02-02T02:49:18.328Z,0.00
2023-02-02T02:50:18.399Z,0.00
2023-02-02T02:51:18.479Z,0.00
2023-02-02T02:52:18.579Z,0.00
2023-02-02T02:53:18.650Z,0.00
2023-02-02T02:54:18.771Z,0.00
2023-02-02T02:55:18.801Z,0.00
2023-02-02T02:56:18.917Z,0.00
2023-02-02T02:57:18.990Z,0.00
2023-02-02T02:58:19.064Z,0.00
2023-02-02T02:59:19.154Z,0.00
2023-02-02T03:00:19.231Z,0.00
2023-02-02T03:01:19.362Z,0.00
2023-02-02T03:02:19.459Z,0.00
2023-02-02T03:03:19.476Z,0.00
2023-02-02T03:04:19.587Z,0.00
2023-02-02T03:05:19.627Z,0.00
2023-02-02T03:06:19.747Z,0.00
2023-02-02T03:07:19.821Z,0.00
2023-02-02T03:08:19.925Z,0.00
2023-02-02T03:09:20.030Z,0.00
2023-02-02T03:10:20.081Z,0.00
2023-02-02T03:11:20.162Z,0.00
2023-02-02T03:12:20.233Z,0.00
2023-02-02T03:13:20.317Z,0.00
2023-02-02T03:14:20.429Z,0.00
2023-02-02T03:15:20.482Z,0.00
2023-02-02T03:16:20.544Z,0.00
2023-02-02T03:17:20.624Z,0.00
2023-02-02T03:18:20.699Z,0.00
2023-02-02T03:19:20.794Z,0.00
2023-02-02T03:20:20.867Z,0.00
2023-02-02T03:21:20.955Z,0.00
2023-02-02T03:22:21.050Z,0.00
2023-02-02T03:23:21.129Z,0.00
2023-02-02T03:24:21.216Z,0.00
2023-02-02T03:25:21.276Z,0.00
2023-02-02T03:26:21.370Z,0.00
2023-02-02T03:27:21.431Z,0.00
2023-02-02T03:28:21.502Z,0.00
2023-02-02T03:29:21.595Z,0.00
2023-02-02T03:30:21.724Z,0.00
2023-02-02T03:31:21.797Z,0.00
2023-02-02T03:32:21.830Z,0.00
2023-02-02T03:33:21.907Z,0.00
2023-02-02T03:34:22.038Z,0.00
2023-02-02T03:35:22.304Z,0.00
2023-02-02T03:36:22.168Z,0.00
2023-02-02T03:37:22.251Z,0.00
2023-02-02T03:38:22.331Z,0.00
2023-02-02T03:39:22.427Z,0.00
2023-02-02T03:40:22.513Z,0.00
2023-02-02T03:41:22.574Z,0.00
2023-02-02T03:42:22.665Z,0.00
2023-02-02T03:43:22.740Z,0.00
2023-02-02T03:44:22.825Z,0.00
2023-02-02T03:45:23.103Z,0.00
2023-02-02T03:46:22.983Z,0.00
2023-02-02T03:47:22.990Z,0.00
2023-02-02T03:48:23.060Z,0.00
2023-02-02T03:49:23.153Z,0.00
2023-02-02T03:50:23.228Z,0.00
2023-02-02T03:51:23.311Z,0.00
2023-02-02T03:52:23.382Z,0.00
2023-02-02T03:53:23.465Z,0.00
2023-02-02T03:54:23.583Z,0.00
2023-02-02T03:55:23.929Z,0.00
2023-02-02T03:56:23.711Z,0.00
2023-02-02T03:57:23.784Z,0.00
2023-02-02T03:58:23.895Z,0.00
2023-02-02T03:59:23.975Z,0.00
2023-02-02T04:00:24.048Z,0.00
2023-02-02T04:01:24.152Z,0.00
2023-02-02T04:02:24.220Z,0.00
2023-02-02T04:03:24.301Z,0.00
2023-02-02T04:04:24.385Z,0.00
2023-02-02T04:05:24.802Z,0.00
2023-02-02T04:06:24.519Z,0.00
2023-02-02T04:07:24.599Z,0.00
2023-02-02T04:08:24.669Z,0.00
2023-02-02T04:09:24.765Z,0.00
2023-02-02T04:10:24.842Z,0.00
2023-02-02T04:11:24.919Z,0.00
2023-02-02T04:12:25.028Z,0.00
2023-02-02T04:13:25.100Z,0.00
2023-02-02T04:14:25.195Z,0.00
2023-02-02T04:15:25.598Z,0.00
2023-02-02T04:16:25.363Z,0.00
2023-02-02T04:17:25.410Z,0.00
2023-02-02T04:18:25.496Z,0.00
2023-02-02T04:19:25.586Z,0.00
2023-02-02T04:20:25.662Z,0.00
2023-02-02T04:21:25.739Z,0.00
2023-02-02T04:22:25.833Z,0.00
2023-02-02T04:23:25.911Z,0.00
2023-02-02T04:24:26.017Z,0.00
2023-02-02T04:25:26.500Z,0.00
2023-02-02T04:26:26.256Z,0.00
2023-02-02T04:27:26.218Z,0.00
2023-02-02T04:28:26.320Z,0.00
2023-02-02T04:29:26.570Z,0.00
2023-02-02T04:30:26.479Z,0.00
2023-02-02T04:31:26.605Z,0.00
2023-02-02T04:32:26.669Z,0.00
2023-02-02T04:33:26.721Z,0.00
2023-02-02T04:34:26.811Z,0.00
2023-02-02T04:35:27.148Z,0.00
2023-02-02T04:36:26.960Z,0.00
2023-02-02T04:37:27.019Z,0.00
2023-02-02T04:38:27.089Z,0.00
2023-02-02T04:39:27.176Z,0.00
2023-02-02T04:40:27.251Z,0.00
2023-02-02T04:41:27.335Z,0.00
2023-02-02T04:42:27.417Z,0.00
2023-02-02T04:43:27.496Z,0.00
2023-02-02T04:44:27.605Z,0.00
2023-02-02T04:45:28.004Z,0.00
2023-02-02T04:46:27.740Z,0.00
2023-02-02T04:47:27.828Z,0.00
2023-02-02T04:48:27.916Z,0.00
2023-02-02T04:49:27.985Z,0.00
2023-02-02T04:50:28.072Z,0.00
2023-02-02T04:51:28.152Z,0.00
2023-02-02T04:52:28.258Z,0.00
2023-02-02T04:53:28.308Z,0.00
2023-02-02T04:54:28.416Z,0.00
2023-02-02T04:55:28.427Z,0.00
2023-02-02T04:56:28.499Z,0.00
2023-02-02T04:57:28.581Z,0.00
2023-02-02T04:58:28.682Z,0.00
2023-02-02T04:59:28.783Z,0.00
2023-02-02T05:00:28.868Z,0.00
2023-02-02T05:01:28.993Z,0.00
2023-02-02T05:02:29.041Z,0.00
2023-02-02T05:03:29.125Z,0.00
2023-02-02T05:04:29.296Z,0.00
2023-02-02T05:05:29.268Z,0.00
2023-02-02T05:06:29.350Z,0.00
2023-02-02T05:07:29.424Z,0.00
2023-02-02T05:08:29.529Z,0.00
2023-02-02T05:09:29.617Z,0.00
2023-02-02T05:10:29.691Z,0.00
2023-02-02T05:11:29.770Z,0.00
2023-02-02T05:12:29.846Z,0.00
2023-02-02T05:13:29.922Z,0.00
2023-02-02T05:14:30.022Z,0.00
2023-02-02T05:15:30.061Z,0.00
2023-02-02T05:16:30.183Z,0.00
2023-02-02T05:17:30.215Z,0.00
2023-02-02T05:18:30.272Z,0.00
2023-02-02T05:19:30.368Z,0.00
2023-02-02T05:20:30.440Z,0.00
2023-02-02T05:21:30.490Z,0.00
2023-02-02T05:22:30.604Z,0.00
2023-02-02T05:23:30.687Z,0.00
2023-02-02T05:24:30.777Z,0.00
2023-02-02T05:25:30.822Z,0.00
2023-02-02T05:26:30.940Z,0.00
2023-02-02T05:27:30.943Z,0.00
2023-02-02T05:28:31.019Z,0.00
2023-02-02T05:29:31.128Z,0.00
2023-02-02T05:30:33.399Z,0.00
2023-02-02T05:31:31.336Z,0.00
2023-02-02T05:32:31.337Z,0.00
2023-02-02T05:33:31.410Z,0.00
2023-02-02T05:34:31.565Z,0.00
2023-02-02T05:35:31.559Z,0.00
2023-02-02T05:36:31.629Z,0.00
2023-02-02T05:37:31.720Z,0.00
2023-02-02T05:38:31.781Z,0.00
2023-02-02T05:39:31.890Z,0.00
2023-02-02T05:40:31.941Z,0.00
2023-02-02T05:41:32.022Z,0.00
2023-02-02T05:42:32.097Z,0.00
2023-02-02T05:43:32.179Z,0.00
2023-02-02T05:44:32.264Z,0.00
2023-02-02T05:45:32.350Z,0.00
2023-02-02T05:46:32.444Z,0.00
2023-02-02T05:47:32.500Z,0.00
2023-02-02T05:48:32.591Z,0.00
2023-02-02T05:49:32.703Z,0.00
2023-02-02T05:50:32.755Z,0.00
2023-02-02T05:51:32.828Z,0.00
2023-02-02T05:52:32.904Z,0.00
2023-02-02T05:53:32.978Z,0.00
2023-02-02T05:54:33.071Z,0.00
2023-02-02T05:55:33.145Z,0.00
2023-02-02T05:56:33.219Z,0.00
2023-02-02T05:57:33.292Z,0.00
2023-02-02T05:58:33.374Z,0.00
2023-02-02T05:59:33.463Z,0.00
2023-02-02T06:00:33.511Z,0.00
2023-02-02T06:01:33.607Z,0.00
2023-02-02T06:02:33.685Z,0.00
2023-02-02T06:03:33.904Z,0.00
2023-02-02T06:04:33.840Z,0.00
2023-02-02T06:05:33.916Z,0.00
2023-02-02T06:06:33.997Z,0.00
2023-02-02T06:07:34.106Z,0.00
2023-02-02T06:08:34.172Z,0.00
2023-02-02T06:09:34.263Z,0.00
2023-02-02T06:10:34.310Z,0.00
2023-02-02T06:11:34.375Z,0.00
2023-02-02T06:12:34.451Z,0.00
2023-02-02T06:13:34.530Z,0.00
2023-02-02T06:14:34.626Z,0.00
2023-02-02T06:15:34.764Z,0.00
2023-02-02T06:16:34.767Z,0.00
2023-02-02T06:17:34.833Z,0.00
2023-02-02T06:18:34.917Z,0.00
2023-02-02T06:19:34.998Z,0.00
2023-02-02T06:20:35.066Z,0.00
2023-02-02T06:21:35.159Z,0.00
2023-02-02T06:22:35.245Z,0.00
2023-02-02T06:23:35.347Z,0.00
2023-02-02T06:24:35.422Z,0.00
2023-02-02T06:25:35.493Z,0.00
2023-02-02T06:26:35.604Z,0.00
2023-02-02T06:27:35.667Z,0.00
2023-02-02T06:28:35.745Z,0.00
2023-02-02T06:29:35.846Z,0.00
2023-02-02T06:30:35.912Z,0.00
2023-02-02T06:31:36.175Z,0.00
2023-02-02T06:32:36.046Z,0.00
2023-02-02T06:33:36.112Z,0.00
2023-02-02T06:34:36.192Z,0.00
2023-02-02T06:35:36.251Z,0.00
2023-02-02T06:36:36.335Z,0.00
2023-02-02T06:37:36.406Z,0.00
2023-02-02T06:38:36.490Z,0.00
2023-02-02T06:39:36.593Z,0.00
2023-02-02T06:40:36.636Z,0.00
2023-02-02T06:41:36.743Z,0.00
2023-02-02T06:42:36.838Z,0.00
2023-02-02T06:43:36.910Z,0.00
2023-02-02T06:44:37.003Z,0.00
2023-02-02T06:45:37.081Z,0.00
2023-02-02T06:46:37.194Z,0.00
2023-02-02T06:47:37.236Z,0.00
2023-02-02T06:48:37.326Z,0.00
2023-02-02T06:49:37.418Z,0.00
2023-02-02T06:50:37.473Z,0.00
2023-02-02T06:51:37.546Z,0.00
2023-02-02T06:52:37.628Z,0.00
2023-02-02T06:53:37.713Z,0.00
2023-02-02T06:54:37.802Z,0.00
2023-02-02T06:55:37.866Z,0.00
2023-02-02T06:56:37.934Z,0.00
2023-02-02T06:57:38.007Z,0.00
2023-02-02T06:58:38.084Z,0.00
2023-02-02T06:59:38.177Z,0.00
2023-02-02T07:00:38.256Z,0.00
2023-02-02T07:01:38.348Z,0.00
2023-02-02T07:02:38.540Z,0.00
2023-02-02T07:03:38.450Z,0.00
2023-02-02T07:04:38.527Z,0.00
2023-02-02T07:05:38.597Z,0.00
2023-02-02T07:06:38.670Z,0.00
2023-02-02T07:07:38.753Z,0.00
2023-02-02T07:08:38.825Z,0.00
2023-02-02T07:09:38.933Z,0.00
2023-02-02T07:11:09.211Z,0.00
2023-02-02T07:11:41.018Z,0.00
2023-02-02T07:12:39.141Z,5.62
2023-02-02T07:13:39.309Z,5.62
2023-02-02T07:14:39.324Z,5.62
2023-02-02T07:15:39.485Z,5.62
2023-02-02T07:16:39.488Z,5.62
2023-02-02T07:17:39.540Z,5.62
2023-02-02T07:18:39.663Z,5.62
2023-02-02T07:19:39.746Z,5.62
2023-02-02T07:20:39.790Z,5.62
2023-02-02T07:21:39.900Z,5.62
2023-02-02T07:22:39.982Z,5.62
2023-02-02T07:23:40.070Z,5.62
2023-02-02T07:24:40.192Z,11.25
2023-02-02T07:25:40.911Z,11.25
2023-02-02T07:26:40.381Z,11.25
2023-02-02T07:27:40.411Z,11.25
2023-02-02T07:28:40.488Z,16.88
2023-02-02T07:29:40.612Z,16.88
2023-02-02T07:30:40.705Z,22.50
2023-02-02T07:31:40.811Z,22.50
2023-02-02T07:32:40.840Z,22.50
2023-02-02T07:33:40.942Z,22.50
2023-02-02T07:34:41.038Z,16.88
2023-02-02T07:35:41.109Z,22.50
2023-02-02T07:36:41.200Z,22.50
2023-02-02T07:37:41.291Z,28.12
2023-02-02T07:38:41.370Z,28.12
2023-02-02T07:39:41.457Z,28.12
2023-02-02T07:40:41.503Z,33.75
2023-02-02T07:41:41.575Z,28.12
2023-02-02T07:42:41.658Z,33.75
2023-02-02T07:43:41.736Z,39.38
2023-02-02T07:44:41.831Z,39.38
2023-02-02T07:45:42.320Z,39.38
2023-02-02T07:46:42.024Z,33.75
2023-02-02T07:47:42.064Z,33.75
2023-02-02T07:48:42.158Z,28.12
2023-02-02T07:49:42.238Z,28.12
2023-02-02T07:50:42.271Z,22.50
2023-02-02T07:51:47.223Z,22.50
2023-02-02T07:52:42.450Z,28.12
2023-02-02T07:53:42.540Z,28.12
2023-02-02T07:54:42.664Z,22.50
2023-02-02T07:55:42.710Z,28.12
2023-02-02T07:56:42.795Z,28.12
2023-02-02T07:57:42.884Z,33.75
2023-02-02T07:58:42.971Z,33.75
2023-02-02T07:59:43.050Z,33.75
2023-02-02T08:00:43.100Z,33.75
2023-02-02T08:01:43.273Z,33.75
2023-02-02T08:02:43.304Z,28.12
2023-02-02T08:03:43.346Z,28.12
2023-02-02T08:04:43.441Z,28.12
2023-02-02T08:05:43.519Z,28.12
2023-02-02T08:06:43.596Z,33.75
2023-02-02T08:07:43.687Z,33.75
2023-02-02T08:08:43.772Z,33.75
2023-02-02T08:09:43.858Z,39.38
2023-02-02T08:10:43.900Z,39.38
2023-02-02T08:11:43.975Z,39.38
2023-02-02T08:12:44.055Z,39.38
2023-02-02T08:13:44.132Z,39.38
2023-02-02T08:14:44.231Z,39.38
2023-02-02T08:15:44.309Z,39.38
2023-02-02T08:16:44.397Z,39.38
2023-02-02T08:17:44.460Z,39.38
2023-02-02T08:18:44.539Z,45.00
2023-02-02T08:19:44.657Z,45.00
2023-02-02T08:20:44.711Z,50.62
2023-02-02T08:21:44.795Z,45.00
2023-02-02T08:22:44.878Z,39.38
2023-02-02T08:23:44.968Z,50.62
2023-02-02T08:24:45.046Z,56.25
2023-02-02T08:25:45.117Z,50.62
2023-02-02T08:26:45.335Z,61.88
2023-02-02T08:27:45.271Z,61.88
2023-02-02T08:28:45.349Z,67.50
2023-02-02T08:29:45.436Z,61.88
2023-02-02T08:30:45.518Z,56.25
2023-02-02T08:31:45.602Z,50.62
2023-02-02T08:32:45.630Z,50.62
2023-02-02T08:33:45.733Z,45.00
2023-02-02T08:34:45.826Z,56.25
2023-02-02T08:35:45.877Z,56.25
2023-02-02T08:36:45.962Z,56.25
2023-02-02T08:37:46.038Z,56.25
2023-02-02T08:38:46.114Z,61.88
2023-02-02T08:39:46.216Z,56.25
2023-02-02T08:40:46.261Z,56.25
2023-02-02T08:41:46.348Z,56.25
2023-02-02T08:42:46.427Z,67.50
2023-02-02T08:43:46.501Z,73.12
2023-02-02T08:46:00.050Z,61.88
2023-02-02T08:46:08.144Z,61.88
2023-02-02T08:46:46.859Z,73.12
2023-02-02T08:47:46.844Z,78.75
2023-02-02T08:48:46.895Z,90.00
2023-02-02T08:49:46.983Z,84.38
2023-02-02T08:50:47.020Z,84.38
2023-02-02T08:51:47.107Z,73.12
2023-02-02T08:52:47.179Z,73.12
2023-02-02T08:53:47.266Z,84.38
2023-02-02T08:54:47.358Z,90.00
2023-02-02T08:55:47.424Z,84.38
2023-02-02T08:56:47.516Z,84.38
2023-02-02T08:57:47.598Z,78.75
2023-02-02T08:58:47.691Z,73.12
2023-02-02T08:59:47.780Z,78.75
2023-02-02T09:00:47.844Z,73.12
2023-02-02T09:01:47.902Z,50.62
2023-02-02T09:02:47.981Z,45.00
2023-02-02T09:03:48.077Z,45.00
2023-02-02T09:04:48.151Z,50.62
2023-02-02T09:05:48.229Z,61.88
2023-02-02T09:06:48.281Z,78.75
2023-02-02T09:07:49.054Z,78.75
2023-02-02T09:08:48.559Z,73.12
2023-02-02T09:09:48.534Z,67.50
2023-02-02T09:10:48.573Z,73.12
2023-02-02T09:11:48.672Z,84.38
2023-02-02T09:12:48.751Z,90.00
2023-02-02T09:13:48.837Z,90.00
2023-02-02T09:14:49.302Z,78.75
2023-02-02T09:15:48.967Z,84.38
2023-02-02T09:16:49.073Z,90.00
2023-02-02T09:17:49.143Z,84.38
2023-02-02T09:18:49.233Z,73.12
2023-02-02T09:19:49.315Z,67.50
2023-02-02T09:20:49.358Z,90.00
2023-02-02T09:21:49.432Z,90.00
2023-02-02T09:22:49.510Z,95.62
2023-02-02T09:23:49.597Z,101.25
2023-02-02T09:24:49.697Z,101.25
2023-02-02T09:25:49.762Z,118.12
2023-02-02T09:26:49.854Z,118.12
2023-02-02T09:27:49.927Z,101.25
2023-02-02T09:28:49.990Z,95.62
2023-02-02T09:29:50.104Z,90.00
2023-02-02T09:30:50.167Z,78.75
2023-02-02T09:31:50.380Z,84.38
2023-02-02T09:32:50.305Z,95.62
2023-02-02T09:33:50.366Z,78.75
2023-02-02T09:34:50.480Z,90.00
2023-02-02T09:35:50.519Z,73.12
2023-02-02T09:36:50.605Z,84.38
2023-02-02T09:37:50.704Z,84.38
2023-02-02T09:38:50.785Z,73.12
2023-02-02T09:39:50.896Z,84.38
2023-02-02T09:40:50.928Z,95.62
2023-02-02T09:41:51.002Z,84.38
2023-02-02T09:42:51.077Z,84.38
2023-02-02T09:43:51.158Z,90.00
2023-02-02T09:44:51.242Z,106.88
2023-02-02T09:45:51.323Z,112.50
2023-02-02T09:46:51.386Z,106.88
2023-02-02T09:47:51.454Z,106.88
2023-02-02T09:48:51.536Z,106.88
2023-02-02T09:49:51.625Z,101.25
2023-02-02T09:50:51.668Z,112.50
2023-02-02T09:51:51.757Z,140.62
2023-02-02T09:52:51.837Z,106.88
2023-02-02T09:53:55.517Z,106.88
2023-02-02T09:54:52.005Z,112.50
2023-02-02T09:55:52.065Z,112.50
2023-02-02T09:56:52.153Z,123.75
2023-02-02T09:57:52.236Z,129.38
2023-02-02T09:58:52.319Z,112.50
2023-02-02T09:59:52.421Z,135.00
2023-02-02T10:00:52.494Z,151.88
2023-02-02T10:01:52.564Z,151.88
2023-02-02T10:02:52.674Z,146.25
2023-02-02T10:03:52.769Z,163.12
2023-02-02T10:04:52.863Z,174.38
2023-02-02T10:05:52.922Z,191.25
2023-02-02T10:06:52.989Z,191.25
2023-02-02T10:07:53.072Z,168.75
2023-02-02T10:08:53.151Z,146.25
2023-02-02T10:09:53.233Z,146.25
2023-02-02T10:10:53.294Z,151.88
2023-02-02T10:11:53.378Z,163.12
2023-02-02T10:12:53.460Z,157.50
2023-02-02T10:13:53.526Z,174.38
2023-02-02T10:14:53.673Z,196.88
2023-02-02T10:15:53.729Z,202.50
2023-02-02T10:16:53.794Z,213.75
2023-02-02T10:17:53.873Z,213.75
2023-02-02T10:18:53.949Z,208.12
2023-02-02T10:19:54.048Z,168.75
2023-02-02T10:20:54.130Z,135.00
2023-02-02T10:21:54.206Z,106.88
2023-02-02T10:22:54.301Z,101.25
2023-02-02T10:23:54.391Z,101.25
2023-02-02T10:24:54.462Z,101.25
2023-02-02T10:25:54.546Z,101.25
2023-02-02T10:26:54.717Z,101.25
2023-02-02T10:27:54.693Z,101.25
2023-02-02T10:28:54.781Z,112.50
2023-02-02T10:29:54.877Z,106.88
2023-02-02T10:30:55.158Z,101.25
2023-02-02T10:31:55.208Z,106.88
2023-02-02T10:32:55.100Z,118.12
2023-02-02T10:33:55.185Z,112.50
2023-02-02T10:35:06.829Z,112.50
2023-02-02T10:35:55.328Z,118.12
2023-02-02T10:36:55.415Z,123.75
2023-02-02T10:37:55.475Z,118.12
2023-02-02T10:38:55.550Z,112.50
2023-02-02T10:39:55.659Z,118.12
2023-02-02T10:40:55.713Z,106.88
2023-02-02T10:41:55.787Z,106.88
2023-02-02T10:42:57.191Z,106.88
2023-02-02T10:43:55.942Z,106.88
2023-02-02T10:44:56.062Z,106.88
2023-02-02T10:45:56.143Z,118.12
2023-02-02T10:46:56.212Z,112.50
2023-02-02T10:47:56.286Z,118.12
2023-02-02T10:48:56.389Z,106.88
2023-02-02T10:49:56.467Z,106.88
2023-02-02T10:50:56.522Z,106.88
2023-02-02T10:51:56.603Z,118.12
2023-02-02T10:52:56.717Z,135.00
2023-02-02T10:53:56.765Z,151.88
2023-02-02T10:54:58.690Z,168.75
2023-02-02T10:55:56.904Z,168.75
2023-02-02T10:56:57.001Z,180.00
2023-02-02T10:57:57.076Z,180.00
2023-02-02T10:58:57.149Z,168.75
2023-02-02T10:59:57.246Z,168.75
2023-02-02T11:00:57.335Z,168.75
2023-02-02T11:01:58.028Z,146.25
2023-02-02T11:02:57.531Z,157.50
2023-02-02T11:03:57.572Z,196.88
2023-02-02T11:04:57.676Z,208.12
2023-02-02T11:05:57.729Z,230.62
2023-02-02T11:07:00.463Z,253.12
2023-02-02T11:07:57.895Z,236.25
2023-02-02T11:08:57.973Z,236.25
2023-02-02T11:09:58.040Z,303.75
2023-02-02T11:10:58.118Z,354.38
2023-02-02T11:11:58.197Z,348.75
2023-02-02T11:13:00.080Z,360.00
2023-02-02T11:13:58.374Z,326.25
2023-02-02T11:14:58.453Z,298.12
2023-02-02T11:16:03.833Z,298.12
2023-02-02T11:16:58.582Z,270.00
2023-02-02T11:17:58.667Z,247.50
2023-02-02T11:18:58.739Z,253.12
2023-02-02T11:19:58.830Z,241.88
2023-02-02T11:20:58.903Z,236.25
2023-02-02T11:21:58.980Z,230.62
2023-02-02T11:22:59.059Z,219.38
2023-02-02T11:23:59.138Z,213.75
2023-02-02T11:24:59.221Z,230.62
2023-02-02T11:25:59.266Z,241.88
2023-02-02T11:26:59.434Z,241.88
2023-02-02T11:27:59.427Z,241.88
2023-02-02T11:29:00.986Z,241.88
2023-02-02T11:29:59.604Z,236.25
2023-02-02T11:30:59.821Z,213.75
2023-02-02T11:31:59.778Z,213.75
2023-02-02T11:32:59.835Z,236.25
2023-02-02T11:33:59.918Z,236.25
2023-02-02T11:35:00.014Z,208.12
2023-02-02T11:36:00.065Z,196.88
2023-02-02T11:37:00.135Z,191.25
2023-02-02T11:38:00.218Z,196.88
2023-02-02T11:39:00.287Z,191.25
2023-02-02T11:40:00.381Z,157.50
2023-02-02T11:41:00.449Z,135.00
2023-02-02T11:42:00.546Z,140.62
2023-02-02T11:43:00.632Z,146.25
2023-02-02T11:44:00.687Z,151.88
2023-02-02T11:45:00.814Z,146.25
2023-02-02T11:46:02.870Z,163.12
2023-02-02T11:47:00.933Z,163.12
2023-02-02T11:48:01.012Z,168.75
2023-02-02T11:49:01.092Z,157.50
2023-02-02T11:50:01.219Z,163.12
2023-02-02T11:51:01.429Z,163.12
2023-02-02T11:52:01.329Z,151.88
2023-02-02T11:53:01.390Z,163.12
2023-02-02T11:54:01.475Z,168.75
2023-02-02T11:55:01.585Z,168.75
2023-02-02T11:56:01.636Z,157.50
2023-02-02T11:57:01.719Z,140.62
2023-02-02T11:58:01.797Z,140.62
2023-02-02T11:59:01.876Z,129.38
2023-02-02T12:00:01.942Z,140.62
2023-02-02T12:01:02.079Z,135.00
2023-02-02T12:02:02.136Z,123.75
2023-02-02T12:03:02.203Z,129.38
2023-02-02T12:04:02.330Z,140.62
2023-02-02T12:05:02.378Z,135.00
2023-02-02T12:06:02.423Z,157.50
2023-02-02T12:07:02.495Z,151.88
2023-02-02T12:08:02.580Z,146.25
2023-02-02T12:09:02.654Z,157.50
2023-02-02T12:10:02.729Z,157.50
2023-02-02T12:11:02.832Z,174.38
2023-02-02T12:12:02.907Z,225.00
2023-02-02T12:13:02.979Z,236.25
2023-02-02T12:14:03.060Z,281.25
2023-02-02T12:15:03.171Z,292.50
2023-02-02T12:16:03.228Z,303.75
2023-02-02T12:17:03.293Z,320.62
2023-02-02T12:18:03.353Z,331.88
2023-02-02T12:19:03.456Z,298.12
2023-02-02T12:20:03.549Z,275.62
2023-02-02T12:21:03.626Z,264.38
2023-02-02T12:22:03.716Z,281.25
2023-02-02T12:23:03.790Z,264.38
2023-02-02T12:24:03.887Z,247.50
2023-02-02T12:25:03.965Z,264.38
2023-02-02T12:26:04.010Z,270.00
2023-02-02T12:27:04.081Z,309.38
2023-02-02T12:28:04.165Z,320.62
2023-02-02T12:29:04.245Z,320.62
2023-02-02T12:30:04.306Z,320.62
2023-02-02T12:31:04.399Z,354.38
2023-02-02T12:32:04.609Z,337.50
2023-02-02T12:33:04.563Z,320.62
2023-02-02T12:34:04.633Z,303.75
2023-02-02T12:35:04.739Z,275.62
2023-02-02T12:36:04.773Z,258.75
2023-02-02T12:37:04.841Z,247.50
2023-02-02T12:38:04.904Z,247.50
2023-02-02T12:39:04.983Z,230.62
2023-02-02T12:40:05.070Z,225.00
2023-02-02T12:41:05.163Z,253.12
2023-02-02T12:42:05.240Z,270.00
2023-02-02T12:43:05.316Z,275.62
2023-02-02T12:44:05.374Z,275.62
2023-02-02T12:45:05.492Z,292.50
2023-02-02T12:46:05.587Z,303.75
2023-02-02T12:47:05.651Z,298.12
2023-02-02T12:48:05.730Z,292.50
2023-02-02T12:49:05.803Z,247.50
2023-02-02T12:50:05.884Z,196.88
2023-02-02T12:51:05.953Z,191.25
2023-02-02T12:52:06.049Z,191.25
2023-02-02T12:53:06.107Z,191.25
2023-02-02T12:54:33.892Z,196.88
2023-02-02T12:55:06.267Z,196.88
2023-02-02T12:56:06.297Z,185.62
2023-02-02T12:57:06.374Z,196.88
2023-02-02T12:58:07.562Z,196.88
2023-02-02T12:59:06.531Z,202.50
2023-02-02T13:00:06.617Z,230.62
2023-02-02T13:01:06.722Z,213.75